Time;durP1;ratioP1;P1;durP2;ratioP2;P2;SDS_P1;SDS_P2;PMS_P1;PMS_P2;Temp;Humidity;BMP_temperature;BMP_pressure;BME280_temperature;BME280_humidity;BME280_pressure;Samples;Min_cycle;Max_cycle;Signal;HPM_P1;HPM_P2
2023/08/08 00:00:09;;;;;;;13.63;3.72;;;;;;;13.74;98.84;101312.56;5035065;28;20022;-76
2023/08/08 00:02:34;;;;;;;13.65;3.95;;;;;;;13.72;99.36;101321.78;5028528;28;20026;-77
2023/08/08 00:05:00;;;;;;;10.65;4.00;;;;;;;13.70;99.19;101321.06;5024440;28;20122;-76
2023/08/08 00:07:25;;;;;;;9.70;3.63;;;;;;;13.67;99.41;101315.91;5021699;28;20041;-76
2023/08/08 00:09:51;;;;;;;10.30;3.53;;;;;;;13.65;99.92;101313.31;5033293;28;20034;-78
2023/08/08 00:12:16;;;;;;;14.55;4.13;;;;;;;13.67;99.84;101324.00;5028246;28;20017;-77
2023/08/08 00:14:45;;;;;;;10.45;3.88;;;;;;;13.60;100.00;101319.09;5030206;28;20107;-77
2023/08/08 00:17:11;;;;;;;10.98;3.85;;;;;;;13.62;100.00;101313.56;5036310;28;20065;-75
2023/08/08 00:19:36;;;;;;;16.55;4.10;;;;;;;13.61;100.00;101312.69;5034405;28;20026;-76
2023/08/08 00:22:01;;;;;;;10.02;3.85;;;;;;;13.64;100.00;101311.59;5036563;28;20021;-75
2023/08/08 00:24:27;;;;;;;12.43;3.80;;;;;;;13.62;100.00;101311.72;5030508;28;20038;-78
2023/08/08 00:26:52;;;;;;;13.23;3.92;;;;;;;13.68;100.00;101315.78;5020959;28;20091;-76
2023/08/08 00:29:17;;;;;;;15.43;3.92;;;;;;;13.68;100.00;101314.91;5004139;28;20125;-77
2023/08/08 00:31:43;;;;;;;11.27;3.55;;;;;;;13.68;100.00;101317.63;5011338;28;20121;-76
2023/08/08 00:34:08;;;;;;;12.43;3.85;;;;;;;13.69;100.00;101313.91;5012089;28;20037;-76
2023/08/08 00:36:33;;;;;;;12.48;4.05;;;;;;;13.72;100.00;101313.66;5021274;28;20118;-76
2023/08/08 00:38:59;;;;;;;14.02;3.65;;;;;;;13.75;100.00;101308.06;5035777;28;20048;-77
2023/08/08 00:41:25;;;;;;;13.80;3.92;;;;;;;13.73;100.00;101305.44;5034450;28;20034;-77
2023/08/08 00:43:51;;;;;;;11.60;3.50;;;;;;;13.77;100.00;101303.38;5033623;28;20053;-77
2023/08/08 00:46:20;;;;;;;13.82;3.90;;;;;;;13.82;100.00;101298.44;5028566;28;20046;-76
2023/08/08 00:48:46;;;;;;;11.02;3.65;;;;;;;13.80;100.00;101303.97;5035378;28;20034;-77
2023/08/08 00:51:11;;;;;;;10.90;3.70;;;;;;;13.80;100.00;101301.28;5035231;28;20098;-76
2023/08/08 00:53:37;;;;;;;12.07;4.15;;;;;;;13.79;100.00;101294.16;5029333;28;20014;-76
2023/08/08 00:56:02;;;;;;;12.82;3.55;;;;;;;13.83;100.00;101292.06;5034256;28;20213;-76
2023/08/08 00:58:28;;;;;;;12.63;4.00;;;;;;;13.85;100.00;101287.44;5034181;28;20083;-77
2023/08/08 01:00:57;;;;;;;15.30;4.15;;;;;;;13.83;100.00;101294.78;5032797;28;20006;-75
2023/08/08 01:03:22;;;;;;;11.52;3.65;;;;;;;13.82;100.00;101295.75;5032826;28;20009;-76
2023/08/08 01:05:57;;;;;;;14.50;4.05;;;;;;;13.81;100.00;101300.31;5034323;28;20022;-77
2023/08/08 01:08:26;;;;;;;12.88;4.07;;;;;;;13.83;100.00;101304.72;5023298;28;20030;-76
2023/08/08 01:10:52;;;;;;;14.10;3.87;;;;;;;13.84;100.00;101307.31;5035270;28;20049;-77
2023/08/08 01:13:23;;;;;;;14.68;3.83;;;;;;;13.86;100.00;101305.34;5035268;28;20070;-77
2023/08/08 01:15:49;;;;;;;13.85;3.88;;;;;;;13.85;100.00;101300.06;5032346;28;20041;-75
2023/08/08 01:18:15;;;;;;;13.73;4.18;;;;;;;13.88;100.00;101297.97;5034056;28;20045;-77
2023/08/08 01:20:44;;;;;;;16.25;4.30;;;;;;;13.86;100.00;101288.28;5034332;28;20014;-78
2023/08/08 01:23:17;;;;;;;14.65;4.57;;;;;;;13.86;100.00;101286.41;5031673;28;20028;-77
2023/08/08 01:25:43;;;;;;;11.77;3.95;;;;;;;13.87;100.00;101290.00;5034605;28;20025;-77
2023/08/08 01:28:09;;;;;;;14.77;4.20;;;;;;;13.87;100.00;101285.44;5033560;28;20050;-76
2023/08/08 01:30:35;;;;;;;13.52;3.95;;;;;;;13.91;100.00;101292.31;5019898;28;20084;-78
2023/08/08 01:33:00;;;;;;;14.82;3.90;;;;;;;13.92;100.00;101296.72;5034643;28;20093;-77
2023/08/08 01:35:30;;;;;;;13.27;4.28;;;;;;;13.93;100.00;101298.47;5028152;28;20051;-75
2023/08/08 01:38:07;;;;;;;12.02;3.78;;;;;;;13.94;100.00;101297.47;5036275;28;20115;-76
2023/08/08 01:40:35;;;;;;;12.48;4.10;;;;;;;13.94;100.00;101292.06;5031595;28;20052;-75
2023/08/08 01:43:01;;;;;;;14.00;4.10;;;;;;;13.95;100.00;101287.53;5035178;28;20021;-76
2023/08/08 01:45:26;;;;;;;15.68;4.53;;;;;;;13.94;100.00;101281.28;5032827;28;20042;-75
2023/08/08 01:47:53;;;;;;;18.85;4.25;;;;;;;13.94;100.00;101278.56;5010370;28;20465;-78
2023/08/08 01:50:19;;;;;;;13.85;4.10;;;;;;;13.96;100.00;101283.84;5010358;28;20424;-78
2023/08/08 01:52:44;;;;;;;14.90;4.60;;;;;;;13.96;100.00;101275.75;5010232;28;20144;-78
2023/08/08 01:55:10;;;;;;;10.93;3.72;;;;;;;13.94;100.00;101277.72;5010022;28;20184;-78
2023/08/08 01:57:35;;;;;;;14.52;4.28;;;;;;;13.94;100.00;101278.56;5011307;28;20040;-79
2023/08/08 02:00:01;;;;;;;15.60;4.22;;;;;;;13.94;100.00;101275.00;5001351;28;20056;-78
2023/08/08 02:02:26;;;;;;;13.38;4.40;;;;;;;13.94;100.00;101270.47;5003557;28;20494;-78
2023/08/08 02:04:52;;;;;;;17.10;4.20;;;;;;;13.93;100.00;101263.31;5009917;28;20486;-78
2023/08/08 02:07:17;;;;;;;18.98;4.28;;;;;;;13.89;100.00;101261.00;5009860;28;20037;-79
2023/08/08 02:09:42;;;;;;;16.80;4.72;;;;;;;13.85;100.00;101260.41;5007599;28;20088;-78
2023/08/08 02:12:08;;;;;;;16.95;4.15;;;;;;;13.81;100.00;101259.78;5006389;28;20418;-78
2023/08/08 02:14:33;;;;;;;14.43;4.25;;;;;;;13.79;100.00;101261.75;5009430;28;20044;-78
2023/08/08 02:16:59;;;;;;;14.10;4.03;;;;;;;13.76;100.00;101266.53;5006715;28;20029;-78
2023/08/08 02:19:24;;;;;;;16.77;4.82;;;;;;;13.74;100.00;101258.53;5009761;28;20119;-78
2023/08/08 02:21:49;;;;;;;14.43;4.03;;;;;;;13.73;100.00;101267.63;5011302;28;20129;-78
2023/08/08 02:24:15;;;;;;;13.60;4.03;;;;;;;13.74;100.00;101255.00;5010966;28;20100;-78
2023/08/08 02:26:40;;;;;;;14.80;4.10;;;;;;;13.75;100.00;101264.84;5004826;28;20042;-78
2023/08/08 02:29:05;;;;;;;15.18;4.97;;;;;;;13.74;100.00;101253.16;5004556;28;20061;-78
2023/08/08 02:31:31;;;;;;;13.60;3.72;;;;;;;13.73;100.00;101250.56;5004355;28;20030;-78
2023/08/08 02:33:56;;;;;;;18.23;4.18;;;;;;;13.75;100.00;101251.31;5006933;28;20405;-78
2023/08/08 02:36:21;;;;;;;16.27;4.97;;;;;;;13.70;100.00;101240.88;5002536;28;20402;-78
2023/08/08 02:38:47;;;;;;;16.83;4.43;;;;;;;13.70;100.00;101246.25;5008212;28;20034;-78
2023/08/08 02:41:12;;;;;;;17.38;4.45;;;;;;;13.72;100.00;101246.13;5010342;28;20053;-78
2023/08/08 02:43:38;;;;;;;18.67;4.97;;;;;;;13.69;100.00;101241.88;5007210;28;20028;-78
2023/08/08 02:46:03;;;;;;;15.27;4.88;;;;;;;13.71;100.00;101236.34;5007268;28;20470;-78
2023/08/08 02:48:30;;;;;;;15.88;4.78;;;;;;;13.74;100.00;101236.09;5000219;28;20062;-78
2023/08/08 02:50:55;;;;;;;16.15;4.93;;;;;;;13.72;100.00;101232.63;5002545;28;20029;-78
2023/08/08 02:53:21;;;;;;;20.35;5.68;;;;;;;13.69;100.00;101228.38;5008853;28;20386;-79
2023/08/08 02:55:47;;;;;;;12.82;4.07;;;;;;;13.70;100.00;101221.94;5006508;28;20025;-78
2023/08/08 02:58:12;;;;;;;15.15;4.50;;;;;;;13.68;100.00;101226.63;5008183;28;20025;-78
2023/08/08 03:00:38;;;;;;;16.67;4.88;;;;;;;13.67;100.00;101227.59;5005536;28;20592;-78
2023/08/08 03:03:03;;;;;;;15.82;5.10;;;;;;;13.64;100.00;101223.31;5001750;28;20028;-78
2023/08/08 03:05:29;;;;;;;20.27;5.72;;;;;;;13.61;100.00;101231.66;5007521;28;20026;-79
2023/08/08 03:07:54;;;;;;;16.02;4.72;;;;;;;13.62;100.00;101233.38;5004798;28;20117;-78
2023/08/08 03:10:20;;;;;;;17.80;4.70;;;;;;;13.62;100.00;101225.28;5005748;28;20076;-78
2023/08/08 03:12:45;;;;;;;21.48;5.45;;;;;;;13.62;100.00;101225.28;5008346;28;20057;-79
2023/08/08 03:15:11;;;;;;;19.95;4.95;;;;;;;13.60;100.00;101234.47;5002019;28;20026;-78
2023/08/08 03:17:36;;;;;;;19.48;5.22;;;;;;;13.61;100.00;101234.34;5006003;28;20026;-79
2023/08/08 03:20:05;;;;;;;17.33;4.85;;;;;;;13.60;100.00;101231.78;4997921;28;20088;-78
2023/08/08 03:22:31;;;;;;;19.52;5.90;;;;;;;13.63;100.00;101229.72;5006602;28;20117;-78
2023/08/08 03:24:56;;;;;;;22.58;5.53;;;;;;;13.60;100.00;101235.38;5003972;28;20100;-78
2023/08/08 03:27:22;;;;;;;18.25;5.45;;;;;;;13.60;100.00;101224.56;5006502;28;20032;-78
2023/08/08 03:29:47;;;;;;;19.00;5.85;;;;;;;13.61;100.00;101218.16;5009719;28;20126;-78
2023/08/08 03:32:12;;;;;;;18.83;5.60;;;;;;;13.59;100.00;101217.44;5009185;28;20486;-78
2023/08/08 03:34:38;;;;;;;18.30;6.07;;;;;;;13.62;100.00;101227.13;5009027;28;20025;-78
2023/08/08 03:37:03;;;;;;;20.95;5.90;;;;;;;13.64;100.00;101217.91;5008556;28;20133;-78
2023/08/08 03:39:28;;;;;;;21.58;5.63;;;;;;;13.63;100.00;101229.72;5009023;28;20033;-78
2023/08/08 03:41:54;;;;;;;20.20;6.30;;;;;;;13.64;100.00;101219.75;5011935;28;20033;-79
2023/08/08 03:44:19;;;;;;;19.73;5.03;;;;;;;13.60;100.00;101219.16;5008974;28;20394;-79
2023/08/08 03:46:44;;;;;;;19.80;6.15;;;;;;;13.58;100.00;101221.09;5012926;28;20101;-78
2023/08/08 03:49:10;;;;;;;17.52;5.40;;;;;;;13.57;100.00;101224.81;5011273;28;20445;-79
2023/08/08 03:51:35;;;;;;;18.45;5.45;;;;;;;13.54;100.00;101224.19;5006105;28;20028;-78
2023/08/08 03:54:00;;;;;;;19.88;6.32;;;;;;;13.56;100.00;101212.28;5008838;28;20315;-78
2023/08/08 03:56:27;;;;;;;15.38;5.15;;;;;;;13.54;100.00;101218.78;5013255;28;20335;-78
2023/08/08 03:58:52;;;;;;;20.77;6.30;;;;;;;13.51;100.00;101217.16;5012108;28;20057;-78
2023/08/08 04:01:17;;;;;;;19.45;5.68;;;;;;;13.47;100.00;101218.44;5011951;28;20042;-78
2023/08/08 04:03:43;;;;;;;19.25;5.57;;;;;;;13.48;100.00;101216.56;5010917;28;20033;-78
2023/08/08 04:06:08;;;;;;;20.50;6.82;;;;;;;13.46;100.00;101216.69;5009566;28;20040;-79
2023/08/08 04:08:33;;;;;;;16.45;4.75;;;;;;;13.42;100.00;101215.22;5012200;28;20153;-79
2023/08/08 04:10:59;;;;;;;16.90;5.80;;;;;;;13.38;100.00;101214.63;5005141;28;20026;-78
2023/08/08 04:13:24;;;;;;;19.60;5.95;;;;;;;13.37;100.00;101207.50;5013393;28;20033;-78
2023/08/08 04:15:51;;;;;;;23.13;6.30;;;;;;;13.36;100.00;101210.31;5011417;28;20477;-79
2023/08/08 04:18:17;;;;;;;23.85;6.80;;;;;;;13.33;100.00;101213.22;5024641;28;20022;-75
2023/08/08 04:20:42;;;;;;;19.60;6.18;;;;;;;13.27;100.00;101211.88;5037630;28;20033;-75
2023/08/08 04:23:08;;;;;;;21.42;6.40;;;;;;;13.27;100.00;101218.13;5036331;28;20089;-76
2023/08/08 04:25:33;;;;;;;18.00;5.63;;;;;;;13.27;100.00;101217.25;5029607;28;20045;-77
2023/08/08 04:27:58;;;;;;;19.17;5.75;;;;;;;13.22;100.00;101214.94;5036272;28;20022;-77
2023/08/08 04:30:24;;;;;;;17.30;5.68;;;;;;;13.18;100.00;101208.06;5033720;28;20031;-76
2023/08/08 04:32:49;;;;;;;18.90;5.57;;;;;;;13.18;100.00;101218.00;5033570;28;20098;-77
2023/08/08 04:35:15;;;;;;;23.55;5.82;;;;;;;13.18;100.00;101208.06;5034809;28;20014;-77
2023/08/08 04:37:40;;;;;;;19.45;6.30;;;;;;;13.21;100.00;101213.19;5026892;28;20037;-76
2023/08/08 04:40:08;;;;;;;18.58;5.55;;;;;;;13.18;100.00;101218.84;5030763;28;20017;-76
2023/08/08 04:42:33;;;;;;;18.63;6.18;;;;;;;13.18;100.00;101209.91;5028946;28;20185;-76
2023/08/08 04:44:59;;;;;;;19.13;5.88;;;;;;;13.19;100.00;101215.19;5032478;28;20034;-77
2023/08/08 04:47:24;;;;;;;21.95;6.07;;;;;;;13.22;100.00;101220.34;5032592;28;20031;-76
2023/08/08 04:49:49;;;;;;;21.27;6.45;;;;;;;13.17;100.00;101218.97;5029610;28;20077;-77
2023/08/08 04:52:15;;;;;;;18.42;5.78;;;;;;;13.20;100.00;101219.56;5028736;28;20029;-77
2023/08/08 04:54:40;;;;;;;20.88;6.63;;;;;;;13.20;100.00;101216.88;5030243;28;20037;-75
2023/08/08 04:57:06;;;;;;;21.25;6.57;;;;;;;13.21;100.00;101215.06;5032601;28;20060;-76
2023/08/08 04:59:31;;;;;;;21.60;5.90;;;;;;;13.22;100.00;101214.94;5029703;28;20031;-75
2023/08/08 05:01:57;;;;;;;20.98;6.15;;;;;;;13.21;100.00;101213.19;5031868;28;20020;-76
2023/08/08 05:04:22;;;;;;;17.58;6.03;;;;;;;13.20;100.00;101221.44;5036777;28;20045;-76
2023/08/08 05:06:47;;;;;;;22.20;6.80;;;;;;;13.20;100.00;101210.63;5034457;28;20042;-76
2023/08/08 05:09:13;;;;;;;19.67;6.57;;;;;;;13.19;100.00;101215.19;5032327;28;20018;-75
2023/08/08 05:11:38;;;;;;;22.55;6.95;;;;;;;13.20;100.00;101216.03;5035152;28;20033;-76
2023/08/08 05:14:03;;;;;;;24.05;7.13;;;;;;;13.19;100.00;101219.69;5024724;28;20046;-76
2023/08/08 05:16:29;;;;;;;20.60;5.95;;;;;;;13.19;100.00;101209.78;5032438;28;20093;-77
2023/08/08 05:18:54;;;;;;;21.10;6.85;;;;;;;13.20;100.00;101216.03;5027664;28;20082;-76
2023/08/08 05:21:21;;;;;;;21.05;6.03;;;;;;;13.23;100.00;101210.38;5032010;28;20029;-77
2023/08/08 05:23:46;;;;;;;25.02;7.25;;;;;;;13.23;100.00;101205.84;5031662;28;20034;-75
2023/08/08 05:26:11;;;;;;;21.92;6.22;;;;;;;13.24;100.00;101212.97;5030675;28;20091;-74
2023/08/08 05:28:37;;;;;;;21.23;6.25;;;;;;;13.25;100.00;101212.00;5033231;28;20114;-75
2023/08/08 05:31:03;;;;;;;18.85;6.32;;;;;;;13.28;100.00;101211.75;5029400;28;20041;-76
2023/08/08 05:33:28;;;;;;;23.10;7.18;;;;;;;13.34;100.00;101223.03;5030881;28;20022;-76
2023/08/08 05:35:53;;;;;;;19.60;6.22;;;;;;;13.35;100.00;101217.53;5025872;28;20564;-76
2023/08/08 05:38:19;;;;;;;22.13;7.10;;;;;;;13.38;100.00;101213.75;5010263;28;20040;-76
2023/08/08 05:40:44;;;;;;;24.60;7.38;;;;;;;13.43;100.00;101225.03;5006909;28;20080;-76
2023/08/08 05:43:09;;;;;;;21.52;6.93;;;;;;;13.46;100.00;101216.69;5006937;28;20136;-77
2023/08/08 05:45:35;;;;;;;20.65;6.80;;;;;;;13.54;100.00;101226.88;5008286;28;20030;-76
2023/08/08 05:48:00;;;;;;;23.38;7.75;;;;;;;13.55;100.00;101221.34;5009059;28;20064;-76
2023/08/08 05:50:29;;;;;;;21.05;6.82;;;;;;;13.59;100.00;101222.84;5008872;28;20021;-76
2023/08/08 05:52:54;;;;;;;23.90;7.35;;;;;;;13.60;100.00;101227.25;5002638;28;20045;-76
2023/08/08 05:55:19;;;;;;;27.55;7.32;;;;;;;13.64;100.00;101223.31;5008963;28;20026;-77
2023/08/08 05:57:44;;;;;;;20.23;6.18;;;;;;;13.66;100.00;101225.91;5002182;28;20524;-76
2023/08/08 06:00:13;;;;;;;19.25;7.03;;;;;;;13.70;100.00;101223.81;5002980;28;20026;-77
2023/08/08 06:02:39;;;;;;;26.33;7.18;;;;;;;13.73;100.00;101221.69;5008707;28;20091;-76
2023/08/08 06:05:05;;;;;;;22.23;7.90;;;;;;;13.79;100.00;101223.06;5010971;28;20109;-77
2023/08/08 06:07:30;;;;;;;22.02;6.50;;;;;;;13.83;100.00;101221.81;5010164;28;20528;-77
2023/08/08 06:09:56;;;;;;;25.55;7.10;;;;;;;13.84;100.00;101231.66;5010641;28;20076;-76
2023/08/08 06:12:21;;;;;;;24.25;7.30;;;;;;;13.89;100.00;101229.44;5009059;28;20115;-77
2023/08/08 06:14:47;;;;;;;18.02;6.85;;;;;;;13.94;100.00;101226.38;5011141;28;20108;-76
2023/08/08 06:17:12;;;;;;;19.80;6.70;;;;;;;13.97;100.00;101229.66;4999493;28;20053;-76
2023/08/08 06:19:38;;;;;;;20.15;6.35;;;;;;;14.03;100.00;101235.56;5008329;28;20457;-76
2023/08/08 06:22:03;;;;;;;19.60;6.88;;;;;;;14.04;100.00;101231.88;5007398;28;20513;-77
2023/08/08 06:24:29;;;;;;;25.55;6.82;;;;;;;14.03;100.00;101231.03;5006724;28;20175;-76
2023/08/08 06:26:54;;;;;;;21.23;6.63;;;;;;;14.03;100.00;101240.97;5006634;28;20078;-77
2023/08/08 06:29:19;;;;;;;21.20;6.47;;;;;;;14.06;100.00;101243.44;5007017;28;20054;-77
2023/08/08 06:31:45;;;;;;;20.42;6.90;;;;;;;14.09;100.00;101240.47;5007336;28;20030;-76
2023/08/08 06:34:10;;;;;;;20.90;6.88;;;;;;;14.13;100.00;101241.94;5007523;28;20037;-77
2023/08/08 06:36:35;;;;;;;20.88;6.22;;;;;;;14.17;100.00;101237.97;5003480;28;20374;-76
2023/08/08 06:39:01;;;;;;;21.67;6.60;;;;;;;14.22;100.00;101240.31;5007415;28;20058;-75
2023/08/08 06:41:26;;;;;;;23.02;7.50;;;;;;;14.24;100.00;101239.19;5006643;28;20460;-77
2023/08/08 06:43:51;;;;;;;22.77;7.07;;;;;;;14.30;100.00;101243.22;5005636;28;20417;-77
2023/08/08 06:46:17;;;;;;;21.95;6.72;;;;;;;14.34;100.00;101234.75;5006425;28;20042;-77
2023/08/08 06:48:43;;;;;;;19.58;6.55;;;;;;;14.41;100.00;101226.97;5026859;28;20061;-77
2023/08/08 06:51:08;;;;;;;24.35;7.10;;;;;;;14.45;100.00;101227.56;5030782;28;20014;-77
2023/08/08 06:53:34;;;;;;;25.05;6.65;;;;;;;14.52;100.00;101234.19;5031767;28;20092;-77
2023/08/08 06:55:59;;;;;;;21.38;6.55;;;;;;;14.57;100.00;101240.09;5033771;28;20045;-77
2023/08/08 06:58:24;;;;;;;18.30;7.10;;;;;;;14.64;100.00;101245.84;5031049;28;20036;-77
2023/08/08 07:00:50;;;;;;;21.13;6.40;;;;;;;14.72;100.00;101242.53;5030184;28;20032;-77
2023/08/08 07:03:16;;;;;;;18.80;6.10;;;;;;;14.77;100.00;101240.25;5030998;28;20091;-77
2023/08/08 07:05:41;;;;;;;23.70;7.20;;;;;;;14.81;100.00;101244.44;5030024;28;20033;-77
2023/08/08 07:08:08;;;;;;;22.60;7.03;;;;;;;14.85;100.00;101244.03;5113370;23;20064;-77
2023/08/08 07:10:34;;;;;;;23.67;7.15;;;;;;;14.90;100.00;101240.94;5058698;28;20075;-77
2023/08/08 07:12:59;;;;;;;18.98;6.35;;;;;;;14.93;100.00;101239.81;5050764;28;20025;-77
2023/08/08 07:15:24;;;;;;;22.38;7.47;;;;;;;14.95;100.00;101245.94;5066828;28;20596;-77
2023/08/08 07:17:50;;;;;;;17.75;5.95;;;;;;;15.01;100.00;101240.88;5077009;28;20469;-77
2023/08/08 07:20:15;;;;;;;21.08;6.30;;;;;;;15.07;100.00;101235.94;5063258;22;20409;-76
2023/08/08 07:22:41;;;;;;;18.80;6.32;;;;;;;15.11;100.00;101231.94;5019369;28;20084;-72
2023/08/08 07:25:07;;;;;;;15.07;5.30;;;;;;;15.12;100.00;101234.53;5014924;28;20022;-75
2023/08/08 07:27:32;;;;;;;18.95;5.80;;;;;;;15.18;100.00;101241.25;5023696;28;20034;-74
2023/08/08 07:29:58;;;;;;;22.02;6.40;;;;;;;15.24;100.00;101243.44;5019050;28;20022;-73
2023/08/08 07:32:24;;;;;;;21.08;6.43;;;;;;;15.28;100.00;101238.63;5023228;28;20026;-72
2023/08/08 07:34:49;;;;;;;18.33;5.70;;;;;;;15.32;100.00;101234.66;5025332;28;20022;-73
2023/08/08 07:37:14;;;;;;;16.38;5.10;;;;;;;15.36;100.00;101236.13;5023853;28;20026;-72
2023/08/08 07:39:40;;;;;;;20.13;5.47;;;;;;;15.41;100.00;101238.41;5022297;28;20046;-72
2023/08/08 07:42:05;;;;;;;20.90;6.00;;;;;;;15.43;100.00;101236.41;5024762;28;21195;-72
2023/08/08 07:44:33;;;;;;;19.13;5.50;;;;;;;15.44;100.00;101232.72;5019440;28;20529;-72
2023/08/08 07:46:58;;;;;;;15.35;4.25;;;;;;;15.46;100.00;101228.00;5019880;28;20547;-71
2023/08/08 07:49:23;;;;;;;17.42;5.05;;;;;;;15.50;100.00;101240.31;5039074;28;20116;-71
2023/08/08 07:51:48;;;;;;;14.95;4.63;;;;;;;15.53;100.00;101235.50;5018950;28;20037;-73
2023/08/08 07:54:14;;;;;;;14.10;4.47;;;;;;;15.57;100.00;101233.34;5020095;28;20040;-72
2023/08/08 07:56:39;;;;;;;17.50;4.85;;;;;;;15.64;100.00;101242.66;5023590;28;20104;-72
2023/08/08 07:59:05;;;;;;;19.95;5.40;;;;;;;15.66;99.10;101240.66;5021467;28;20022;-72
2023/08/08 08:01:30;;;;;;;17.75;4.85;;;;;;;15.70;100.00;101244.81;5024573;28;20045;-71
2023/08/08 08:03:56;;;;;;;18.27;5.63;;;;;;;15.70;99.51;101250.22;5024842;28;20022;-71
2023/08/08 08:06:21;;;;;;;16.73;5.07;;;;;;;15.73;97.92;101249.13;5025016;28;20045;-74
2023/08/08 08:08:47;;;;;;;15.55;4.65;;;;;;;15.73;96.78;101249.97;5025326;28;20033;-75
2023/08/08 08:11:13;;;;;;;18.17;5.25;;;;;;;15.76;98.04;101237.16;5031994;28;20025;-75
2023/08/08 08:13:38;;;;;;;17.73;5.40;;;;;;;15.76;96.86;101238.00;5020299;28;20112;-75
2023/08/08 08:16:04;;;;;;;17.17;5.32;;;;;;;15.80;97.79;101238.59;5039091;28;20089;-75
2023/08/08 08:18:29;;;;;;;20.02;6.35;;;;;;;15.88;100.00;101238.78;5029371;28;20385;-74
2023/08/08 08:20:55;;;;;;;17.08;5.68;;;;;;;15.99;100.00;101245.94;5025410;28;20053;-74
2023/08/08 08:23:20;;;;;;;21.05;5.15;;;;;;;16.07;97.16;101238.81;5033325;28;20083;-75
2023/08/08 08:25:46;;;;;;;16.98;5.15;;;;;;;16.18;98.68;101248.72;5030308;28;20041;-75
2023/08/08 08:28:11;;;;;;;16.05;5.25;;;;;;;16.21;95.37;101255.72;5030632;28;20041;-74
2023/08/08 08:30:36;;;;;;;19.30;4.75;;;;;;;16.18;93.38;101255.97;5031372;28;20037;-75
2023/08/08 08:33:03;;;;;;;17.92;5.07;;;;;;;16.14;93.95;101238.28;5033327;28;20481;-75
2023/08/08 08:35:29;;;;;;;17.55;5.25;;;;;;;16.12;94.83;101248.41;5021777;28;20382;-72
2023/08/08 08:37:54;;;;;;;16.38;4.50;;;;;;;16.15;96.34;101242.69;5021968;28;20036;-73
2023/08/08 08:40:20;;;;;;;17.40;5.57;;;;;;;16.14;94.46;101239.13;5027915;28;20386;-73
2023/08/08 08:42:47;;;;;;;19.77;4.78;;;;;;;16.18;97.30;101239.69;5028654;28;20358;-75
2023/08/08 08:45:14;;;;;;;16.38;4.65;;;;;;;16.21;96.24;101244.88;5038179;28;20021;-75
2023/08/08 08:47:42;;;;;;;13.45;4.53;;;;;;;16.26;94.55;101248.00;5022951;28;20026;-72
2023/08/08 08:50:07;;;;;;;16.45;5.00;;;;;;;16.27;94.92;101241.59;5035891;28;20487;-73
2023/08/08 08:52:33;;;;;;;14.00;4.45;;;;;;;16.31;95.00;101245.75;5028265;28;20068;-73
2023/08/08 08:54:58;;;;;;;14.27;4.25;;;;;;;16.31;91.64;101244.88;5025640;28;20059;-78
2023/08/08 08:57:24;;;;;;;12.07;3.72;;;;;;;16.31;90.48;101253.00;5022100;28;20053;-76
2023/08/08 08:59:50;;;;;;;8.48;3.42;;;;;;;16.30;89.23;101248.59;5028437;28;20116;-76
2023/08/08 09:02:17;;;;;;;12.73;3.50;;;;;;;16.28;88.17;101248.72;5015543;28;20057;-77
2023/08/08 09:04:43;;;;;;;10.30;3.33;;;;;;;16.25;87.99;101244.44;5020619;28;20484;-76
2023/08/08 09:07:09;;;;;;;11.02;3.20;;;;;;;16.26;87.44;101253.44;5012464;28;20111;-76
2023/08/08 09:09:36;;;;;;;15.50;4.00;;;;;;;16.24;87.44;101259.00;5025993;28;20389;-76
2023/08/08 09:12:04;;;;;;;13.63;3.63;;;;;;;16.23;87.78;101253.72;5028607;28;20061;-76
2023/08/08 09:14:30;;;;;;;11.05;3.40;;;;;;;16.24;88.91;101258.16;5030113;28;20026;-76
2023/08/08 09:16:57;;;;;;;12.52;3.85;;;;;;;16.26;89.32;101256.16;5036350;28;20109;-76
2023/08/08 09:19:23;;;;;;;14.07;4.13;;;;;;;16.27;89.37;101255.16;5031748;28;20057;-76
2023/08/08 09:21:50;;;;;;;14.95;3.65;;;;;;;16.24;88.64;101250.88;5038387;28;20042;-76
2023/08/08 09:24:16;;;;;;;11.32;3.58;;;;;;;16.23;87.43;101254.56;5033103;28;20066;-76
2023/08/08 09:26:43;;;;;;;14.48;3.72;;;;;;;16.23;86.84;101253.72;5052513;28;20022;-76
2023/08/08 09:29:09;;;;;;;11.38;3.42;;;;;;;16.23;89.05;101259.13;5029286;28;20036;-76
2023/08/08 09:31:35;;;;;;;14.80;3.97;;;;;;;16.23;88.21;101256.44;5028066;28;20041;-75
2023/08/08 09:34:03;;;;;;;13.52;3.97;;;;;;;16.27;89.69;101257.88;5035285;28;20059;-76
2023/08/08 09:36:28;;;;;;;14.27;3.88;;;;;;;16.34;91.21;101260.88;5035140;28;20025;-75
2023/08/08 09:38:55;;;;;;;13.70;4.15;;;;;;;16.37;91.10;101264.16;5036193;28;20033;-76
2023/08/08 09:41:22;;;;;;;17.70;5.28;;;;;;;16.41;90.27;101259.31;5034559;28;20072;-76
2023/08/08 09:43:48;;;;;;;15.77;5.40;;;;;;;16.48;92.92;101265.03;5033516;28;20030;-76
2023/08/08 09:46:15;;;;;;;15.07;4.30;;;;;;;16.56;91.98;101257.91;5036147;28;20026;-75
2023/08/08 09:48:41;;;;;;;14.00;4.93;;;;;;;16.61;93.02;101254.75;5038828;28;20112;-76
2023/08/08 09:51:08;;;;;;;16.77;5.10;;;;;;;16.62;89.42;101259.19;5034470;28;20052;-75
2023/08/08 09:53:34;;;;;;;16.42;4.88;;;;;;;16.65;90.18;101268.88;5032772;28;20117;-76
2023/08/08 09:56:02;;;;;;;16.10;4.68;;;;;;;16.67;88.03;101250.63;5034424;28;20033;-75
2023/08/08 09:58:28;;;;;;;17.10;5.15;;;;;;;16.68;89.60;101250.47;5035086;28;20033;-76
2023/08/08 10:00:53;;;;;;;13.50;3.80;;;;;;;16.70;87.90;101253.91;5035555;28;20025;-75
2023/08/08 10:03:19;;;;;;;13.20;4.22;;;;;;;16.73;87.12;101250.06;5035307;28;20060;-76
2023/08/08 10:05:45;;;;;;;13.40;3.90;;;;;;;16.83;89.63;101260.91;5032080;28;20022;-76
2023/08/08 10:08:11;;;;;;;14.45;3.88;;;;;;;16.91;87.41;101252.91;5038432;28;20079;-76
2023/08/08 10:10:37;;;;;;;10.50;3.80;;;;;;;16.96;84.99;101249.81;5038202;28;20026;-76
2023/08/08 10:13:03;;;;;;;12.65;3.72;;;;;;;17.00;81.02;101254.78;5036225;28;20029;-76
2023/08/08 10:15:29;;;;;;;14.45;3.92;;;;;;;17.05;81.44;101252.47;5037717;28;20080;-76
2023/08/08 10:17:58;;;;;;;13.32;3.90;;;;;;;17.15;85.05;101257.06;5057254;28;20025;-76
2023/08/08 10:20:26;;;;;;;12.48;3.90;;;;;;;17.21;83.67;101243.72;5040190;28;20121;-76
2023/08/08 10:22:54;;;;;;;12.53;3.60;;;;;;;17.31;83.86;101246.44;5037096;28;20126;-76
2023/08/08 10:25:20;;;;;;;12.20;3.75;;;;;;;17.34;83.16;101248.00;5036662;28;20292;-76
2023/08/08 10:27:45;;;;;;;13.68;4.00;;;;;;;17.36;85.96;101246.84;5039881;28;20088;-76
2023/08/08 10:30:12;;;;;;;15.77;4.22;;;;;;;17.37;81.93;101243.13;5039519;28;20136;-76
2023/08/08 10:32:48;;;;;;;9.45;3.40;;;;;;;17.39;80.22;101254.69;5040747;28;20032;-76
2023/08/08 10:35:14;;;;;;;16.48;4.15;;;;;;;17.43;81.37;101256.13;5047084;28;20045;-76
2023/08/08 10:37:40;;;;;;;9.95;3.38;;;;;;;17.42;80.12;101254.44;5032270;28;20465;-76
2023/08/08 10:40:07;;;;;;;13.00;3.70;;;;;;;17.35;77.47;101256.00;5040709;28;20026;-75
2023/08/08 10:42:40;;;;;;;12.43;3.53;;;;;;;17.27;77.54;101258.59;5041501;28;20022;-76
2023/08/08 10:45:09;;;;;;;14.05;3.47;;;;;;;17.15;77.26;101257.06;5031033;28;20029;-73
2023/08/08 10:47:35;;;;;;;10.25;3.40;;;;;;;17.01;78.31;101264.63;5032838;28;20075;-74
2023/08/08 10:50:13;;;;;;;10.90;3.40;;;;;;;16.88;82.26;101275.81;5030062;28;20029;-73
2023/08/08 10:52:53;;;;;;;10.38;3.70;;;;;;;16.82;84.92;101268.19;5028610;28;20485;-73
2023/08/08 10:55:20;;;;;;;10.98;3.63;;;;;;;16.76;83.00;101266.03;5021214;28;20022;-73
2023/08/08 10:57:57;;;;;;;9.32;3.38;;;;;;;16.78;84.99;101267.63;5026942;28;20052;-74
2023/08/08 11:00:29;;;;;;;13.07;4.47;;;;;;;16.81;83.67;101254.75;5026270;28;20528;-73
2023/08/08 11:02:55;;;;;;;11.80;3.97;;;;;;;16.93;84.98;101248.22;5024094;28;20080;-74
2023/08/08 11:05:22;;;;;;;8.93;3.33;;;;;;;17.03;85.24;101238.19;5044819;28;20186;-74